Time;durP1;ratioP1;P1;durP2;ratioP2;P2;SDS_P1;SDS_P2;PMS_P1;PMS_P2;Temp;Humidity;BMP_temperature;BMP_pressure;BME280_temperature;BME280_humidity;BME280_pressure;Samples;Min_cycle;Max_cycle;Signal;HPM_P1;HPM_P2
2024/01/02 00:00:37;;;;;;;20.60;16.27;;;;;;;12.37;71.20;94364.53;5049652;28;20604;-71
2024/01/02 00:03:04;;;;;;;19.97;14.20;;;;;;;12.34;71.44;94362.28;5050172;28;20187;-70
2024/01/02 00:05:31;;;;;;;20.27;14.90;;;;;;;12.37;71.55;94367.91;5029831;28;20200;-73
2024/01/02 00:07:57;;;;;;;17.07;13.70;;;;;;;12.28;71.64;94354.25;5031947;28;20284;-72
2024/01/02 00:10:26;;;;;;;21.90;15.40;;;;;;;12.21;71.48;94340.44;5029671;28;20184;-72
2024/01/02 00:12:52;;;;;;;19.73;14.20;;;;;;;12.36;71.28;94366.31;5029742;28;20211;-71
2024/01/02 00:15:19;;;;;;;17.07;12.60;;;;;;;12.36;71.85;94365.50;5029736;28;20633;-71
2024/01/02 00:17:47;;;;;;;19.10;12.97;;;;;;;12.30;71.69;94359.22;5037932;28;20555;-72
2024/01/02 00:20:14;;;;;;;14.83;12.10;;;;;;;12.37;71.82;94362.78;5029653;28;20228;-69
2024/01/02 00:22:41;;;;;;;17.97;12.33;;;;;;;12.34;71.80;94360.53;5030437;28;20195;-67
2024/01/02 00:25:09;;;;;;;16.07;11.40;;;;;;;12.05;71.90;94318.16;5029791;28;20188;-70
2024/01/02 00:27:35;;;;;;;18.13;11.33;;;;;;;11.98;72.03;94311.25;5029232;28;20195;-66
2024/01/02 00:30:03;;;;;;;16.53;10.93;;;;;;;12.39;72.01;94366.00;5029614;28;20194;-70
2024/01/02 00:32:29;;;;;;;19.27;11.57;;;;;;;12.38;72.09;94369.50;5029215;28;20578;-68
2024/01/02 00:34:58;;;;;;;14.47;10.00;;;;;;;12.39;71.91;94365.19;5029732;28;20195;-68
2024/01/02 00:37:24;;;;;;;16.03;10.93;;;;;;;12.40;72.05;94367.59;5035553;28;20207;-67
2024/01/02 00:39:51;;;;;;;13.80;10.00;;;;;;;12.41;72.13;94366.63;5049549;28;20248;-68
2024/01/02 00:42:18;;;;;;;13.83;9.67;;;;;;;12.42;72.00;94373.38;5033487;28;20214;-70
2024/01/02 00:44:46;;;;;;;13.97;9.90;;;;;;;12.42;72.14;94364.88;5029269;28;20207;-68
2024/01/02 00:47:13;;;;;;;11.17;8.30;;;;;;;12.41;72.32;94361.50;5029744;28;20196;-73
2024/01/02 00:49:39;;;;;;;13.70;9.23;;;;;;;12.44;72.17;94363.78;5029339;28;20192;-68
2024/01/02 00:52:08;;;;;;;12.70;8.93;;;;;;;12.44;71.94;94366.34;5030877;28;20253;-73
2024/01/02 00:54:34;;;;;;;11.67;8.13;;;;;;;12.44;72.19;94363.78;5029156;28;20252;-69
2024/01/02 00:57:01;;;;;;;11.90;8.33;;;;;;;12.28;72.13;94336.31;5033923;28;20249;-67
2024/01/02 00:59:28;;;;;;;11.47;7.83;;;;;;;12.46;72.24;94354.13;5047187;28;20700;-70
2024/01/02 01:01:54;;;;;;;10.43;7.37;;;;;;;12.25;72.36;94317.88;5049483;28;20356;-67
2024/01/02 01:04:23;;;;;;;10.27;8.07;;;;;;;12.48;72.34;94354.00;5049544;28;20187;-66
2024/01/02 01:06:49;;;;;;;12.77;9.23;;;;;;;12.42;72.63;94334.91;5049832;28;20198;-69
2024/01/02 01:09:18;;;;;;;10.80;7.83;;;;;;;12.49;72.34;94350.47;5049484;28;20595;-72
2024/01/02 01:11:45;;;;;;;11.40;8.53;;;;;;;12.24;72.47;94308.59;5053321;28;20222;-68
2024/01/02 01:14:11;;;;;;;10.47;8.00;;;;;;;12.47;72.61;94348.03;5053289;28;20782;-74
2024/01/02 01:16:38;;;;;;;10.07;7.60;;;;;;;12.46;72.52;94354.13;5053154;28;20203;-73
2024/01/02 01:19:05;;;;;;;9.30;7.30;;;;;;;12.45;72.70;94347.41;5052506;28;20229;-72
2024/01/02 01:21:32;;;;;;;9.27;6.60;;;;;;;12.24;72.89;94318.84;5053035;28;20605;-72
2024/01/02 01:23:58;;;;;;;8.73;7.33;;;;;;;12.24;72.71;94314.50;5039121;28;20218;-71
2024/01/02 01:26:27;;;;;;;10.20;7.73;;;;;;;12.41;72.59;94343.56;5033158;28;20630;-73
2024/01/02 01:28:53;;;;;;;9.07;7.10;;;;;;;12.08;72.79;94293.97;5035316;28;20184;-70
2024/01/02 01:31:20;;;;;;;10.23;6.80;;;;;;;12.43;72.86;94351.88;5047286;28;20210;-72
2024/01/02 01:33:47;;;;;;;8.20;6.77;;;;;;;12.32;73.08;94329.13;5040652;28;20222;-71
2024/01/02 01:36:14;;;;;;;11.03;6.87;;;;;;;12.43;72.98;94345.94;5042095;28;20222;-73
2024/01/02 01:38:41;;;;;;;6.90;6.20;;;;;;;12.44;72.94;94339.88;5049573;28;20663;-71
2024/01/02 01:41:07;;;;;;;8.03;6.53;;;;;;;12.43;72.99;94340.81;5052564;28;20682;-72
2024/01/02 01:43:35;;;;;;;5.97;5.23;;;;;;;12.43;73.26;94344.19;5052425;28;20593;-70
2024/01/02 01:46:04;;;;;;;8.23;5.80;;;;;;;12.42;73.14;94339.22;5051564;28;20202;-69
2024/01/02 01:48:31;;;;;;;7.30;6.10;;;;;;;12.44;73.23;94337.31;5042535;28;20227;-67
2024/01/02 01:50:58;;;;;;;8.87;6.10;;;;;;;12.04;73.03;94272.97;5032382;28;20191;-69
2024/01/02 01:53:26;;;;;;;6.40;5.40;;;;;;;12.44;73.22;94334.75;5033422;28;20223;-72
2024/01/02 01:55:53;;;;;;;6.63;5.67;;;;;;;12.26;73.23;94310.03;5032516;28;20180;-73
2024/01/02 01:58:20;;;;;;;5.57;5.00;;;;;;;12.44;73.36;94343.25;5032178;28;20355;-71
2024/01/02 02:00:48;;;;;;;8.47;5.33;;;;;;;12.34;73.13;94327.19;5032025;28;20254;-68
2024/01/02 02:03:17;;;;;;;6.43;5.00;;;;;;;12.35;73.40;94325.41;5032061;28;20207;-70
2024/01/02 02:05:44;;;;;;;6.83;4.83;;;;;;;12.30;73.26;94321.59;5043954;28;20201;-67
2024/01/02 02:08:11;;;;;;;5.63;5.10;;;;;;;12.43;73.52;94339.06;5050076;28;20187;-69
2024/01/02 02:10:38;;;;;;;5.23;4.27;;;;;;;12.44;73.58;94343.25;5052070;28;20206;-69
2024/01/02 02:13:04;;;;;;;5.67;5.17;;;;;;;12.42;73.32;94332.34;5052392;28;20722;-67
2024/01/02 02:15:30;;;;;;;6.07;5.30;;;;;;;12.43;73.53;94336.50;5040868;28;20199;-69
2024/01/02 02:17:59;;;;;;;5.73;4.67;;;;;;;12.36;73.77;94327.84;5031810;28;20203;-70
2024/01/02 02:20:25;;;;;;;5.43;4.93;;;;;;;12.43;73.76;94340.81;5031277;28;20731;-67
2024/01/02 02:22:53;;;;;;;5.00;4.27;;;;;;;12.10;73.68;94288.69;5032477;28;20199;-69
2024/01/02 02:25:20;;;;;;;5.63;4.70;;;;;;;12.43;73.79;94340.81;5032062;28;20580;-70
2024/01/02 02:27:47;;;;;;;4.57;4.07;;;;;;;12.35;73.79;94333.09;5031604;28;20203;-68
2024/01/02 02:30:14;;;;;;;5.33;4.73;;;;;;;12.40;73.82;94334.25;5031544;28;20202;-69
2024/01/02 02:32:41;;;;;;;4.70;4.30;;;;;;;11.86;73.83;94249.22;5031402;28;20207;-71
2024/01/02 02:35:09;;;;;;;4.43;4.03;;;;;;;12.38;73.80;94333.59;5031342;28;20200;-72
2024/01/02 02:37:35;;;;;;;6.27;4.80;;;;;;;12.26;73.88;94312.59;5031287;28;20242;-69
2024/01/02 02:40:04;;;;;;;4.67;4.03;;;;;;;12.37;73.90;94333.78;5032994;28;20535;-68
2024/01/02 02:42:31;;;;;;;4.67;4.23;;;;;;;12.13;73.84;94290.94;5031477;28;20288;-71
2024/01/02 02:44:59;;;;;;;5.50;4.00;;;;;;;12.36;74.03;94324.47;5031065;28;20195;-72
2024/01/02 02:47:25;;;;;;;4.80;4.07;;;;;;;12.34;74.03;94327.19;5039838;28;20194;-68
2024/01/02 02:49:52;;;;;;;4.57;3.83;;;;;;;12.32;74.20;94321.44;5050739;28;20194;-72
2024/01/02 02:52:20;;;;;;;4.33;3.93;;;;;;;12.34;74.06;94328.94;5051312;28;20237;-71
2024/01/02 02:54:47;;;;;;;4.23;3.83;;;;;;;12.33;74.04;94333.28;5049632;28;20183;-72
2024/01/02 02:57:15;;;;;;;4.17;3.53;;;;;;;12.22;73.95;94320.78;5051187;28;20244;-70
2024/01/02 02:59:42;;;;;;;3.53;3.33;;;;;;;12.33;74.15;94333.28;5050920;28;20187;-68
2024/01/02 03:02:08;;;;;;;7.23;4.37;;;;;;;12.32;74.29;94334.25;5051182;28;20190;-66
2024/01/02 03:04:35;;;;;;;4.50;4.10;;;;;;;12.30;74.31;94334.41;5050638;28;20575;-68
2024/01/02 03:07:02;;;;;;;4.20;3.80;;;;;;;12.32;74.37;94336.00;5039254;28;20195;-70
2024/01/02 03:09:29;;;;;;;4.20;3.70;;;;;;;12.31;74.13;94335.22;5031906;28;20568;-68
2024/01/02 03:11:56;;;;;;;3.93;3.37;;;;;;;12.29;74.54;94330.22;5030702;28;20661;-68
2024/01/02 03:14:24;;;;;;;4.17;3.77;;;;;;;12.23;74.45;94312.13;5031276;28;20203;-69
2024/01/02 03:16:51;;;;;;;3.93;3.27;;;;;;;12.18;74.30;94301.53;5029213;28;20746;-69
2024/01/02 03:19:18;;;;;;;4.20;3.70;;;;;;;12.05;74.37;94284.84;5030962;28;20935;-70
2024/01/02 03:21:44;;;;;;;4.30;3.00;;;;;;;12.27;74.50;94315.97;5030319;28;20247;-66
2024/01/02 03:24:11;;;;;;;3.30;3.00;;;;;;;12.26;74.48;94315.19;5031727;28;20640;-69
2024/01/02 03:26:38;;;;;;;3.40;3.10;;;;;;;12.23;74.46;94314.69;5030375;28;20261;-66
2024/01/02 03:29:05;;;;;;;3.37;3.07;;;;;;;12.23;74.61;94320.59;5030486;28;20215;-69
2024/01/02 03:31:33;;;;;;;3.97;3.60;;;;;;;12.15;74.73;94294.94;5030412;28;20283;-67
2024/01/02 03:34:00;;;;;;;3.10;2.83;;;;;;;12.04;74.63;94285.78;5030215;28;20196;-70
2024/01/02 03:36:27;;;;;;;3.53;3.13;;;;;;;12.05;74.72;94284.84;5040427;28;20187;-69
2024/01/02 03:38:54;;;;;;;3.30;3.00;;;;;;;12.20;74.82;94309.84;5048826;28;20222;-65
2024/01/02 03:41:21;;;;;;;2.90;2.70;;;;;;;12.19;74.72;94313.38;5050206;28;20202;-69
2024/01/02 03:43:48;;;;;;;3.10;2.80;;;;;;;12.18;74.81;94311.78;5049425;28;20191;-67
2024/01/02 03:46:14;;;;;;;3.60;3.30;;;;;;;11.92;74.59;94276.00;5050409;28;20210;-70
2024/01/02 03:48:42;;;;;;;5.07;3.07;;;;;;;12.09;74.82;94305.00;5049709;28;20252;-68
2024/01/02 03:51:09;;;;;;;3.27;2.97;;;;;;;12.17;75.01;94312.72;5039908;28;20569;-68
2024/01/02 03:53:36;;;;;;;4.07;2.83;;;;;;;12.11;74.87;94305.69;5031156;28;20198;-69
2024/01/02 03:56:03;;;;;;;2.70;2.50;;;;;;;12.15;74.89;94307.78;5030440;28;20183;-67
2024/01/02 03:58:30;;;;;;;2.70;2.50;;;;;;;12.15;74.83;94312.88;5029810;28;20665;-69
2024/01/02 04:00:57;;;;;;;2.90;2.70;;;;;;;12.15;74.82;94317.22;5029826;28;20723;-65
2024/01/02 04:03:24;;;;;;;3.07;2.77;;;;;;;12.09;75.06;94308.41;5032202;28;20195;-68
2024/01/02 04:05:53;;;;;;;2.93;2.67;;;;;;;12.14;74.86;94321.53;5049745;28;20206;-70
2024/01/02 04:08:19;;;;;;;3.23;2.93;;;;;;;12.03;75.02;94299.56;5049300;28;20210;-69
2024/01/02 04:10:46;;;;;;;2.60;2.40;;;;;;;11.93;74.92;94287.84;5030719;28;20199;-67
2024/01/02 04:13:13;;;;;;;3.10;2.80;;;;;;;12.14;74.97;94318.97;5032083;28;20696;-71
2024/01/02 04:15:40;;;;;;;3.33;2.70;;;;;;;12.15;74.97;94319.78;5046397;28;20210;-68
2024/01/02 04:18:07;;;;;;;2.60;2.30;;;;;;;12.15;74.77;94323.16;5036515;28;20204;-69
2024/01/02 04:20:34;;;;;;;2.50;2.30;;;;;;;12.08;75.14;94316.22;5029981;28;20199;-69
2024/01/02 04:23:02;;;;;;;2.63;2.43;;;;;;;12.16;75.04;94329.88;5030020;28;20228;-65
2024/01/02 04:25:29;;;;;;;2.80;2.57;;;;;;;12.15;75.01;94330.84;5030636;28;20188;-69
2024/01/02 04:27:56;;;;;;;2.60;2.40;;;;;;;12.07;75.19;94312.06;5029590;28;20191;-68
2024/01/02 04:30:24;;;;;;;3.47;2.40;;;;;;;12.16;75.19;94336.75;5029476;28;20200;-66
2024/01/02 04:32:50;;;;;;;2.67;2.47;;;;;;;11.93;75.23;94300.66;5029357;28;20243;-68
2024/01/02 04:35:17;;;;;;;2.97;2.57;;;;;;;12.15;75.25;94330.03;5029709;28;20209;-67
2024/01/02 04:37:44;;;;;;;2.57;2.37;;;;;;;12.16;75.31;94336.75;5029488;28;20245;-70
2024/01/02 04:40:13;;;;;;;2.73;2.53;;;;;;;12.15;75.24;94338.53;5042668;28;20202;-68
2024/01/02 04:42:40;;;;;;;2.90;2.70;;;;;;;12.09;75.36;94328.91;5049109;28;20187;-70
2024/01/02 04:45:09;;;;;;;2.90;2.60;;;;;;;12.05;75.15;94333.53;5051964;28;20797;-69
2024/01/02 04:47:36;;;;;;;2.70;2.50;;;;;;;12.14;75.25;94339.50;5052696;28;20278;-69
2024/01/02 04:50:04;;;;;;;2.60;2.40;;;;;;;11.98;75.49;94318.94;5051908;28;20644;-68
2024/01/02 04:52:31;;;;;;;3.67;2.60;;;;;;;12.14;75.32;94338.69;5033386;28;20230;-70
2024/01/02 04:55:00;;;;;;;3.00;2.50;;;;;;;12.13;75.59;94337.88;5044290;28;20183;-69
2024/01/02 04:57:28;;;;;;;2.70;2.50;;;;;;;12.10;75.50;94327.94;5053057;28;20225;-69
2024/01/02 04:59:55;;;;;;;2.47;2.27;;;;;;;11.88;75.45;94297.78;5052667;28;20679;-70
2024/01/02 05:02:23;;;;;;;2.57;2.37;;;;;;;11.84;75.41;94292.16;5052676;28;20668;-69
2024/01/02 05:04:50;;;;;;;3.00;2.70;;;;;;;12.14;75.63;94343.81;5038923;28;20216;-70
2024/01/02 05:07:17;;;;;;;2.97;2.70;;;;;;;12.12;75.50;94348.28;5033103;28;20184;-67
2024/01/02 05:09:44;;;;;;;2.53;2.40;;;;;;;11.70;75.73;94273.03;5034465;28;20175;-69
2024/01/02 05:12:11;;;;;;;2.77;2.30;;;;;;;12.11;75.54;94350.03;5032809;28;20520;-67
2024/01/02 05:14:40;;;;;;;4.00;2.80;;;;;;;11.97;75.70;94337.84;5032968;28;20626;-67
2024/01/02 05:17:10;;;;;;;2.70;2.50;;;;;;;12.11;75.68;94349.25;5032473;28;20195;-73
2024/01/02 05:19:37;;;;;;;3.53;2.77;;;;;;;12.11;75.50;94346.69;5032709;28;20604;-68
2024/01/02 05:22:04;;;;;;;2.70;2.50;;;;;;;12.03;75.60;94347.44;5032827;28;20263;-69
2024/01/02 05:24:31;;;;;;;2.63;2.33;;;;;;;12.03;75.70;94350.00;5038608;28;20215;-69
2024/01/02 05:26:58;;;;;;;3.00;2.40;;;;;;;11.90;75.51;94326.59;5052312;28;20179;-68
2024/01/02 05:29:25;;;;;;;2.93;2.67;;;;;;;12.00;75.51;94358.00;5052916;28;20203;-71
2024/01/02 05:31:53;;;;;;;3.20;2.90;;;;;;;12.05;75.61;94366.06;5037053;28;20187;-68
2024/01/02 05:34:20;;;;;;;3.87;2.60;;;;;;;12.05;75.63;94378.88;5044396;28;20218;-71
2024/01/02 05:36:46;;;;;;;2.27;2.13;;;;;;;11.91;75.63;94353.81;5052640;28;20286;-71
2024/01/02 05:39:13;;;;;;;2.40;2.20;;;;;;;12.00;75.62;94381.06;5050070;28;20179;-71
2024/01/02 05:41:40;;;;;;;2.70;2.47;;;;;;;12.01;75.55;94382.69;5052889;28;20206;-68
2024/01/02 05:44:08;;;;;;;2.43;2.23;;;;;;;11.94;75.68;94377.38;5035047;28;20191;-69
2024/01/02 05:46:34;;;;;;;2.40;2.30;;;;;;;11.99;75.60;94389.72;5032056;28;20665;-70
2024/01/02 05:49:03;;;;;;;2.50;2.30;;;;;;;11.99;75.72;94397.41;5031833;28;20201;-73
2024/01/02 05:51:30;;;;;;;2.23;2.03;;;;;;;11.97;75.76;94392.44;5041366;28;20187;-72
2024/01/02 05:53:56;;;;;;;2.70;2.50;;;;;;;11.92;75.72;94383.63;5048340;28;20699;-71
2024/01/02 05:56:24;;;;;;;2.27;2.00;;;;;;;11.96;75.52;94395.13;5044455;28;20195;-68
2024/01/02 05:58:51;;;;;;;2.60;2.40;;;;;;;11.48;75.50;94335.00;5037719;28;20183;-70
2024/01/02 06:01:17;;;;;;;5.40;2.80;;;;;;;11.94;75.51;94402.19;5039309;28;20199;-75
2024/01/02 06:03:44;;;;;;;2.93;2.50;;;;;;;11.98;75.83;94409.41;5031518;28;20208;-75
2024/01/02 06:06:14;;;;;;;2.37;2.03;;;;;;;11.94;76.85;94390.19;5031680;28;20187;-74
2024/01/02 06:08:41;;;;;;;2.50;2.30;;;;;;;12.18;77.65;94414.31;5032403;28;20192;-68
2024/01/02 06:11:09;;;;;;;2.70;2.50;;;;;;;12.29;78.73;94425.09;5032686;28;20187;-68
2024/01/02 06:13:36;;;;;;;2.43;2.23;;;;;;;11.67;79.62;94310.94;5031734;28;20223;-73
2024/01/02 06:16:03;;;;;;;3.60;2.33;;;;;;;12.46;80.19;94432.84;5031331;28;20191;-67
2024/01/02 06:18:29;;;;;;;2.50;2.20;;;;;;;12.53;80.89;94426.16;5034046;28;20223;-71
2024/01/02 06:20:57;;;;;;;2.60;2.40;;;;;;;12.58;80.95;94430.81;5051282;28;20669;-71
2024/01/02 06:23:26;;;;;;;2.47;2.07;;;;;;;12.33;81.58;94396.59;5051598;28;20202;-68
2024/01/02 06:25:52;;;;;;;2.20;2.10;;;;;;;12.49;82.45;94435.09;5049539;28;20191;-67
2024/01/02 06:28:19;;;;;;;2.37;2.17;;;;;;;12.50;82.85;94452.91;5051528;28;20202;-73
2024/01/02 06:30:46;;;;;;;2.73;2.40;;;;;;;12.46;82.91;94453.34;5051213;28;20191;-71
2024/01/02 06:33:13;;;;;;;2.70;2.50;;;;;;;12.41;82.79;94461.53;5051402;28;20284;-71
2024/01/02 06:35:41;;;;;;;2.23;2.10;;;;;;;12.29;82.73;94448.16;5051389;28;20197;-69
2024/01/02 06:38:08;;;;;;;2.13;1.97;;;;;;;12.27;82.53;94452.66;5050973;28;20214;-70
2024/01/02 06:40:37;;;;;;;2.40;2.20;;;;;;;12.26;82.16;94461.31;5032928;28;20589;-70
2024/01/02 06:43:04;;;;;;;2.87;2.20;;;;;;;11.99;81.87;94425.59;5031384;28;20195;-70
2024/01/02 06:45:31;;;;;;;1.90;1.80;;;;;;;12.19;81.62;94462.88;5032797;28;20191;-69
2024/01/02 06:47:58;;;;;;;2.30;2.10;;;;;;;12.10;81.41;94466.34;5031565;28;20206;-69
2024/01/02 06:50:25;;;;;;;1.93;1.83;;;;;;;12.13;81.06;94478.03;5031245;28;20198;-70
2024/01/02 06:52:53;;;;;;;2.13;2.03;;;;;;;12.08;80.89;94477.69;5031564;28;20279;-67
2024/01/02 06:55:19;;;;;;;2.27;2.07;;;;;;;11.87;80.78;94467.81;5049548;28;20194;-68
2024/01/02 06:57:48;;;;;;;3.33;2.03;;;;;;;12.02;80.74;94495.28;5063887;28;20179;-72
2024/01/02 07:00:15;;;;;;;2.10;2.00;;;;;;;12.00;80.26;94498.94;5030766;28;20254;-66
2024/01/02 07:02:43;;;;;;;2.80;2.17;;;;;;;11.97;80.19;94497.50;5030592;28;20639;-67
2024/01/02 07:05:13;;;;;;;2.13;1.90;;;;;;;11.94;79.81;94497.00;5031041;28;20657;-70
2024/01/02 07:07:40;;;;;;;2.60;2.40;;;;;;;11.93;79.79;94493.66;5030383;28;20676;-70
2024/01/02 07:10:08;;;;;;;2.20;2.00;;;;;;;11.91;79.78;94484.50;5039029;28;20195;-70
2024/01/02 07:12:35;;;;;;;2.20;1.90;;;;;;;11.88;79.49;94485.63;5044152;28;20187;-68
2024/01/02 07:15:04;;;;;;;2.67;2.10;;;;;;;11.71;79.38;94460.81;5030786;28;20254;-66
2024/01/02 07:17:31;;;;;;;2.60;1.80;;;;;;;11.85;79.14;94492.78;5039829;28;20282;-66
2024/01/02 07:19:59;;;;;;;2.37;2.13;;;;;;;11.67;78.99;94472.31;5050116;28;20229;-70
2024/01/02 07:22:27;;;;;;;2.87;2.40;;;;;;;11.70;79.02;94487.34;5045241;28;20248;-67
2024/01/02 07:24:54;;;;;;;2.60;2.20;;;;;;;11.79;78.96;94501.84;5046712;28;20231;-68
2024/01/02 07:27:21;;;;;;;2.60;2.40;;;;;;;11.78;78.63;94505.34;5047693;28;20217;-68
2024/01/02 07:29:48;;;;;;;2.93;2.23;;;;;;;11.45;78.63;94451.34;5049125;28;20176;-68
2024/01/02 07:32:16;;;;;;;2.53;2.33;;;;;;;11.74;78.43;94497.19;5049371;28;20199;-71
2024/01/02 07:34:43;;;;;;;2.50;2.30;;;;;;;11.73;78.54;94500.69;5048620;28;20232;-67
2024/01/02 07:37:11;;;;;;;2.23;2.03;;;;;;;11.72;78.39;94505.97;5047998;28;20575;-69
2024/01/02 07:39:37;;;;;;;2.47;2.20;;;;;;;11.70;78.35;94515.53;5049642;28;20187;-71
2024/01/02 07:42:05;;;;;;;4.90;2.33;;;;;;;11.65;78.27;94504.94;5048848;28;20343;-69
2024/01/02 07:44:32;;;;;;;2.00;1.90;;;;;;;11.69;78.03;94517.28;5049101;28;20249;-70
2024/01/02 07:46:59;;;;;;;2.30;2.20;;;;;;;11.50;78.18;94492.66;5049489;28;20206;-70
2024/01/02 07:49:27;;;;;;;3.30;2.27;;;;;;;11.69;77.79;94524.19;5047104;28;20187;-66
2024/01/02 07:51:54;;;;;;;2.30;2.10;;;;;;;11.44;77.83;94484.75;5048835;28;20194;-65
2024/01/02 07:54:21;;;;;;;2.80;2.50;;;;;;;11.69;77.66;94527.53;5049053;28;20242;-66
2024/01/02 07:56:48;;;;;;;2.80;2.60;;;;;;;11.52;77.71;94501.00;5049153;28;20194;-68
2024/01/02 07:59:17;;;;;;;2.40;2.20;;;;;;;11.59;77.62;94508.09;5048108;28;20186;-67
2024/01/02 08:01:44;;;;;;;2.17;2.03;;;;;;;11.70;77.58;94534.28;5046255;28;20571;-63
2024/01/02 08:04:11;;;;;;;2.47;2.27;;;;;;;11.69;77.48;94530.09;5045895;28;20178;-69
2024/01/02 08:06:39;;;;;;;2.50;2.30;;;;;;;11.70;77.30;94533.47;5048263;28;20679;-66
2024/01/02 08:09:06;;;;;;;2.67;2.47;;;;;;;11.70;77.20;94530.91;5048336;28;20184;-69
2024/01/02 08:11:33;;;;;;;2.57;2.30;;;;;;;11.76;79.96;94531.13;5048293;28;20616;-68
2024/01/02 08:14:00;;;;;;;2.67;2.47;;;;;;;12.30;95.42;94539.53;5045593;28;20207;-67
2024/01/02 08:16:26;;;;;;;3.60;2.87;;;;;;;12.69;93.37;94539.06;5048364;28;20668;-67
2024/01/02 08:18:53;;;;;;;3.03;2.67;;;;;;;12.88;91.03;94548.28;5043475;28;20214;-65
2024/01/02 08:21:20;;;;;;;3.00;2.70;;;;;;;12.96;89.63;94540.63;5044963;28;20194;-69
2024/01/02 08:23:49;;;;;;;3.63;2.30;;;;;;;12.94;88.70;94542.50;5044026;28;20652;-67
2024/01/02 08:26:15;;;;;;;2.60;2.40;;;;;;;12.96;88.18;94545.75;5044991;28;20183;-70
2024/01/02 08:28:43;;;;;;;4.13;2.93;;;;;;;12.81;87.53;94519.06;5045728;28;20206;-67
2024/01/02 08:31:09;;;;;;;3.80;2.60;;;;;;;12.88;87.06;94545.72;5044440;28;20636;-68
2024/01/02 08:33:36;;;;;;;2.73;2.50;;;;;;;12.84;86.57;94546.19;5045714;28;20214;-70
2024/01/02 08:36:03;;;;;;;2.77;2.47;;;;;;;12.53;86.11;94498.75;5045461;28;20195;-69
2024/01/02 08:38:30;;;;;;;2.63;2.27;;;;;;;12.77;86.01;94546.78;5043395;28;20396;-69
2024/01/02 08:40:58;;;;;;;3.00;2.67;;;;;;;12.73;85.84;94540.34;5044713;28;20194;-68
2024/01/02 08:43:25;;;;;;;2.67;2.23;;;;;;;12.49;85.41;94504.34;5045994;28;20183;-67
2024/01/02 08:45:52;;;;;;;2.67;2.40;;;;;;;12.73;85.14;94532.66;5043738;28;20194;-69
2024/01/02 08:48:18;;;;;;;3.03;2.70;;;;;;;12.75;85.25;94541.00;5045994;28;20260;-69
2024/01/02 08:50:45;;;;;;;2.77;2.50;;;;;;;12.78;85.13;94547.63;5046245;28;20195;-69
2024/01/02 08:53:13;;;;;;;3.17;2.83;;;;;;;12.66;84.89;94520.63;5042312;28;20194;-69
2024/01/02 08:55:40;;;;;;;4.10;3.10;;;;;;;12.80;84.94;94543.91;5045774;28;20233;-73
2024/01/02 08:58:08;;;;;;;3.00;2.73;;;;;;;12.62;84.95;94516.75;5045449;28;20282;-72
2024/01/02 09:00:35;;;;;;;3.47;3.17;;;;;;;12.84;84.86;94546.19;5045617;28;20198;-70
2024/01/02 09:03:02;;;;;;;3.90;3.43;;;;;;;12.89;84.78;94537.03;5043048;28;20334;-70
2024/01/02 09:05:29;;;;;;;3.70;3.33;;;;;;;12.96;84.44;94538.03;5044907;28;20207;-66
2024/01/02 09:07:56;;;;;;;3.60;3.30;;;;;;;12.85;84.36;94499.81;5046743;28;20264;-67
2024/01/02 09:10:23;;;;;;;3.77;3.47;;;;;;;13.12;84.08;94537.25;5046004;28;20203;-68
2024/01/02 09:12:50;;;;;;;4.07;3.20;;;;;;;13.12;84.01;94532.13;5044711;28;20191;-69
2024/01/02 09:15:18;;;;;;;3.33;3.03;;;;;;;13.19;84.23;94529.75;5042042;28;20297;-68
2024/01/02 09:17:45;;;;;;;3.57;3.27;;;;;;;12.11;83.92;94354.38;5043072;28;20284;-69
2024/01/02 09:20:12;;;;;;;3.57;3.20;;;;;;;12.66;83.96;94438.53;5045097;28;20238;-70
2024/01/02 09:22:39;;;;;;;4.83;3.13;;;;;;;13.29;83.55;94535.56;5044442;28;20207;-71
2024/01/02 09:25:06;;;;;;;4.03;3.37;;;;;;;13.31;83.89;94533.66;5044455;28;20196;-67
2024/01/02 09:27:36;;;;;;;3.20;2.90;;;;;;;13.31;83.98;94531.09;5045197;28;20191;-68
2024/01/02 09:30:04;;;;;;;3.27;2.97;;;;;;;13.23;83.97;94520.81;5043507;28;20275;-68
2024/01/02 09:32:33;;;;;;;3.40;2.87;;;;;;;13.30;83.98;94527.72;5049507;28;20230;-70
2024/01/02 09:35:00;;;;;;;3.47;3.10;;;;;;;13.29;84.07;94525.28;5048888;28;20317;-68
2024/01/02 09:37:27;;;;;;;4.93;3.70;;;;;;;13.26;84.18;94531.56;5048374;28;20191;-67
2024/01/02 09:39:54;;;;;;;3.63;3.33;;;;;;;13.26;84.16;94534.13;5056021;28;20273;-71
2024/01/02 09:42:41;;;;;;;3.93;3.30;;;;;;;13.18;84.36;94518.69;5051995;28;20187;-67
2024/01/02 09:45:18;;;;;;;4.90;3.60;;;;;;;12.91;84.30;94475.28;5047245;28;20272;-67
2024/01/02 09:48:13;;;;;;;4.00;3.57;;;;;;;13.05;84.27;94490.91;5044810;28;20582;-70
2024/01/02 09:50:49;;;;;;;3.27;2.97;;;;;;;13.13;84.22;94495.25;5045214;28;20187;-69
2024/01/02 09:53:52;;;;;;;3.43;3.13;;;;;;;13.18;83.94;94499.91;5048193;28;20186;-69
2024/01/02 09:56:27;;;;;;;3.73;3.10;;;;;;;13.27;83.90;94496.41;4985305;28;20196;-69
2024/01/02 09:59:05;;;;;;;4.97;3.00;;;;;;;13.33;83.82;94502.69;4983039;28;20669;-66
2024/01/02 10:01:41;;;;;;;3.40;3.03;;;;;;;13.33;83.58;94487.25;4984858;28;20201;-68
2024/01/02 10:04:30;;;;;;;3.27;2.97;;;;;;;13.45;83.60;94483.41;4986436;28;20733;-65
2024/01/02 10:07:13;;;;;;;3.00;2.77;;;;;;;13.51;83.48;94478.47;4986095;28;20201;-69
2024/01/02 10:09:52;;;;;;;3.67;2.87;;;;;;;13.54;83.32;94472.97;4983482;28;20192;-69
2024/01/02 10:12:29;;;;;;;3.17;2.77;;;;;;;13.60;83.35;94461.28;4985702;28;20205;-68
2024/01/02 10:15:13;;;;;;;3.00;2.60;;;;;;;13.75;82.98;94482.78;4985643;28;20263;-70
2024/01/02 10:17:50;;;;;;;2.53;2.33;;;;;;;13.69;82.46;94451.78;4986670;28;20315;-68
2024/01/02 10:20:26;;;;;;;4.00;3.00;;;;;;;13.52;82.42;94405.56;4988362;28;20228;-68
2024/01/02 10:23:02;;;;;;;3.23;2.83;;;;;;;13.78;82.26;94427.69;4986533;28;20200;-68
2024/01/02 10:25:30;;;;;;;2.87;2.57;;;;;;;14.18;82.29;94467.91;4988844;28;20197;-69
2024/01/02 10:28:09;;;;;;;3.27;2.90;;;;;;;14.29;82.05;94462.41;4987805;28;20236;-70
2024/01/02 10:30:44;;;;;;;3.10;2.77;;;;;;;14.43;82.05;94463.50;4987319;28;20189;-68
2024/01/02 10:33:23;;;;;;;5.63;3.27;;;;;;;14.54;81.88;94457.19;5030408;28;20259;-68
2024/01/02 10:35:54;;;;;;;3.00;2.70;;;;;;;14.57;81.55;94443.19;5049315;28;20644;-68
2024/01/02 10:38:33;;;;;;;3.53;2.60;;;;;;;14.71;81.46;94437.34;5048035;28;20179;-68
2024/01/02 10:41:06;;;;;;;4.20;3.00;;;;;;;14.76;81.49;94425.56;5047375;28;20183;-67
2024/01/02 10:43:45;;;;;;;3.33;2.70;;;;;;;15.09;81.45;94458.03;5046544;28;20195;-69
2024/01/02 10:46:29;;;;;;;3.20;2.90;;;;;;;15.17;81.42;94458.78;5049928;28;20674;-67
2024/01/02 10:49:08;;;;;;;3.23;2.93;;;;;;;15.20;81.42;94458.44;5049078;28;20199;-69
2024/01/02 10:51:40;;;;;;;3.20;2.53;;;;;;;15.22;81.52;94453.13;5048017;28;20187;-67
2024/01/02 10:54:13;;;;;;;3.53;3.00;;;;;;;15.21;81.82;94451.53;5047240;28;20672;-67
2024/01/02 10:56:47;;;;;;;3.20;2.70;;;;;;;15.17;82.10;94445.09;5046082;28;20195;-68
2024/01/02 10:59:30;;;;;;;3.90;2.97;;;;;;;15.15;82.39;94450.41;5049625;28;20249;-68
2024/01/02 11:02:04;;;;;;;2.67;2.47;;;;;;;15.13;82.02;94451.56;5049615;28;20187;-70
2024/01/02 11:04:37;;;;;;;2.70;2.50;;;;;;;15.11;82.11;94438.88;5047567;28;20230;-66
2024/01/02 11:07:07;;;;;;;4.63;2.60;;;;;;;14.89;82.02;94406.97;5047647;28;20198;-66
2024/01/02 11:09:43;;;;;;;3.33;2.87;;;;;;;15.11;82.19;94444.03;5046993;28;20605;-68
2024/01/02 11:12:11;;;;;;;2.97;2.67;;;;;;;14.85;81.95;94392.03;5048750;28;20545;-66
2024/01/02 11:14:41;;;;;;;4.63;2.83;;;;;;;15.04;81.89;94423.28;5049250;28;20210;-67
2024/01/02 11:17:10;;;;;;;3.50;3.17;;;;;;;15.15;81.93;94434.97;5043774;28;20577;-66
2024/01/02 11:19:41;;;;;;;3.13;2.83;;;;;;;15.18;81.75;94434.63;5047405;28;20273;-66
2024/01/02 11:22:15;;;;;;;3.57;2.83;;;;;;;15.21;81.82;94428.34;5049428;28;20252;-66
2024/01/02 11:24:48;;;;;;;4.00;3.37;;;;;;;15.17;81.76;94417.56;5048933;28;20191;-69
2024/01/02 11:27:20;;;;;;;3.77;3.33;;;;;;;15.22;81.92;94422.22;5046873;28;20195;-68
2024/01/02 11:29:50;;;;;;;4.80;3.20;;;;;;;15.23;81.94;94414.28;5047468;28;20183;-66
2024/01/02 11:32:24;;;;;;;3.20;2.90;;;;;;;15.23;81.80;94411.72;5048685;28;20675;-66
2024/01/02 11:35:00;;;;;;;4.03;3.63;;;;;;;15.21;81.84;94418.84;5048773;28;20218;-68
2024/01/02 11:37:45;;;;;;;4.33;3.60;;;;;;;15.17;81.68;94416.78;5049137;28;20195;-66